Time;durP1;ratioP1;P1;durP2;ratioP2;P2;SDS_P1;SDS_P2;PMS_P1;PMS_P2;Temp;Humidity;BMP_temperature;BMP_pressure;BME280_temperature;BME280_humidity;BME280_pressure;Samples;Min_cycle;Max_cycle;Signal;HPM_P1;HPM_P2
2021/08/15 00:01:55;;;;;;;4.32;1.77;;;15.60;99.90;;;;;;4991259;28;20027;-84
2021/08/15 00:04:21;;;;;;;4.45;1.55;;;15.60;99.90;;;;;;5007032;28;20030;-84
2021/08/15 00:06:46;;;;;;;4.03;1.40;;;15.60;99.90;;;;;;5007247;28;20046;-84
2021/08/15 00:09:12;;;;;;;4.63;1.42;;;15.70;99.90;;;;;;4990972;28;20113;-84
2021/08/15 00:11:37;;;;;;;4.93;1.73;;;15.70;99.90;;;;;;5007494;28;20038;-84
2021/08/15 00:14:03;;;;;;;4.00;1.38;;;15.70;99.90;;;;;;5006914;28;20057;-83
2021/08/15 00:16:29;;;;;;;3.22;1.50;;;15.70;99.90;;;;;;4987361;28;20057;-84
2021/08/15 00:18:54;;;;;;;7.32;1.98;;;15.60;99.90;;;;;;4987396;28;20037;-84
2021/08/15 00:21:20;;;;;;;4.03;1.48;;;15.60;99.90;;;;;;4987603;28;20038;-84
2021/08/15 00:23:46;;;;;;;3.88;1.65;;;15.50;99.90;;;;;;4986844;28;20034;-84
2021/08/15 00:26:11;;;;;;;3.95;1.70;;;15.60;99.90;;;;;;4987387;28;20046;-84
2021/08/15 00:28:37;;;;;;;4.80;1.77;;;15.60;99.90;;;;;;4987343;28;20042;-84
2021/08/15 00:31:03;;;;;;;4.45;2.08;;;15.60;99.90;;;;;;5004092;28;20037;-84
2021/08/15 00:33:29;;;;;;;4.55;1.90;;;15.60;99.90;;;;;;4990402;28;20124;-84
2021/08/15 00:35:54;;;;;;;4.00;1.83;;;15.50;99.90;;;;;;5006681;28;20472;-84
2021/08/15 00:38:20;;;;;;;3.97;1.98;;;15.60;99.90;;;;;;4990351;28;20015;-83
2021/08/15 00:40:46;;;;;;;5.05;2.22;;;15.60;99.90;;;;;;4990294;28;20066;-84
2021/08/15 00:43:11;;;;;;;6.20;2.38;;;15.60;99.90;;;;;;4990290;28;20430;-85
2021/08/15 00:45:37;;;;;;;7.75;2.00;;;15.50;99.90;;;;;;4989904;28;20062;-84
2021/08/15 00:48:12;;;;;;;5.07;2.17;;;15.50;99.90;;;;;;5006223;28;20045;-84
2021/08/15 00:50:39;;;;;;;5.80;2.30;;;15.50;99.90;;;;;;4989784;28;20065;-84
2021/08/15 00:53:05;;;;;;;5.68;1.95;;;15.40;99.90;;;;;;5006466;28;20054;-84
2021/08/15 00:55:34;;;;;;;4.35;2.05;;;15.50;99.90;;;;;;5006263;28;20045;-84
2021/08/15 00:58:04;;;;;;;7.30;2.00;;;15.50;99.90;;;;;;5007160;28;20026;-84
2021/08/15 01:00:30;;;;;;;4.93;2.13;;;15.60;99.90;;;;;;5007422;28;20091;-84
2021/08/15 01:02:58;;;;;;;4.47;1.98;;;15.60;99.90;;;;;;4989979;28;20035;-84
2021/08/15 01:05:24;;;;;;;3.40;1.58;;;15.60;99.90;;;;;;5007068;28;20046;-84
2021/08/15 01:07:49;;;;;;;4.13;1.70;;;15.70;99.90;;;;;;4989818;28;20045;-84
2021/08/15 01:10:16;;;;;;;4.40;1.95;;;15.70;99.90;;;;;;5005960;28;20495;-84
2021/08/15 01:12:42;;;;;;;4.88;1.20;;;15.80;99.90;;;;;;4989698;28;20037;-84
2021/08/15 01:15:09;;;;;;;3.28;1.42;;;15.80;99.90;;;;;;4989729;28;20493;-84
2021/08/15 01:17:34;;;;;;;5.13;1.50;;;15.80;99.90;;;;;;4991050;28;20043;-84
2021/08/15 01:20:00;;;;;;;4.80;1.83;;;15.80;99.90;;;;;;4986294;28;20031;-84
2021/08/15 01:22:27;;;;;;;4.05;1.33;;;15.80;99.90;;;;;;4970184;28;20034;-84
2021/08/15 01:24:54;;;;;;;5.18;3.45;;;15.70;99.90;;;;;;4969999;28;20133;-84
2021/08/15 01:27:21;;;;;;;12.82;6.22;;;15.70;99.90;;;;;;4987484;28;20094;-84
2021/08/15 01:29:48;;;;;;;14.07;8.50;;;15.70;99.90;;;;;;4992928;28;20092;-84
2021/08/15 01:32:18;;;;;;;12.18;8.48;;;15.70;99.90;;;;;;4989375;28;20038;-84
2021/08/15 01:34:43;;;;;;;;;;;15.80;99.90;;;;;;4989053;28;20026;-84
2021/08/15 01:37:10;;;;;;;13.18;9.40;;;15.70;99.90;;;;;;5005526;28;20358;-84
2021/08/15 01:39:40;;;;;;;16.02;12.00;;;15.70;99.90;;;;;;5005459;28;20030;-84
2021/08/15 01:42:06;;;;;;;16.40;11.80;;;15.70;99.90;;;;;;4989405;28;20031;-84
2021/08/15 01:44:32;;;;;;;15.55;12.45;;;15.80;99.90;;;;;;5005311;28;20034;-84
2021/08/15 01:46:57;;;;;;;17.67;13.07;;;15.80;99.90;;;;;;4988912;28;20046;-84
2021/08/15 01:49:23;;;;;;;14.48;12.35;;;15.80;99.90;;;;;;4988827;28;20141;-84
2021/08/15 01:51:49;;;;;;;14.70;11.02;;;15.80;99.90;;;;;;4989007;28;20030;-84
2021/08/15 01:54:15;;;;;;;11.77;8.30;;;15.70;99.90;;;;;;4989272;28;20037;-84
2021/08/15 01:56:40;;;;;;;11.57;6.97;;;15.80;99.90;;;;;;4990212;28;20031;-84
2021/08/15 01:59:06;;;;;;;7.80;4.68;;;15.80;99.90;;;;;;5006459;28;20037;-84
2021/08/15 02:01:32;;;;;;;6.57;4.22;;;15.70;99.90;;;;;;5006488;28;20081;-84
2021/08/15 02:03:57;;;;;;;8.95;3.55;;;15.70;99.90;;;;;;4988989;28;20030;-84
2021/08/15 02:06:23;;;;;;;5.03;2.85;;;15.70;99.90;;;;;;4988807;28;20057;-84
2021/08/15 02:08:50;;;;;;;5.32;2.85;;;15.60;99.90;;;;;;4988786;28;20030;-84
2021/08/15 02:11:16;;;;;;;5.57;2.58;;;15.60;99.90;;;;;;4988902;28;20394;-84
2021/08/15 02:13:42;;;;;;;6.07;2.60;;;15.60;99.90;;;;;;5004950;28;20030;-84
2021/08/15 02:16:08;;;;;;;4.85;2.85;;;15.60;99.90;;;;;;4988559;28;20085;-84
2021/08/15 02:18:33;;;;;;;6.18;3.22;;;15.60;99.90;;;;;;4988850;28;20129;-84
2021/08/15 02:21:00;;;;;;;5.43;2.58;;;15.50;99.90;;;;;;5004963;28;20034;-84
2021/08/15 02:23:25;;;;;;;4.78;2.42;;;15.50;99.90;;;;;;4988512;28;20039;-84
2021/08/15 02:25:53;;;;;;;6.18;2.40;;;15.40;99.90;;;;;;4988587;28;20042;-84
2021/08/15 02:28:18;;;;;;;5.43;2.35;;;15.40;99.90;;;;;;5004808;28;20119;-84
2021/08/15 02:30:44;;;;;;;6.88;3.47;;;15.30;99.90;;;;;;5004814;28;20034;-83
2021/08/15 02:33:10;;;;;;;6.13;3.72;;;15.30;99.90;;;;;;4988475;28;20035;-84
2021/08/15 02:35:36;;;;;;;5.45;3.03;;;15.30;99.90;;;;;;4988785;28;20429;-85
2021/08/15 02:38:01;;;;;;;6.88;3.63;;;15.20;99.90;;;;;;4988430;28;20033;-84
2021/08/15 02:40:27;;;;;;;7.68;3.42;;;15.20;99.90;;;;;;4988426;28;20026;-84
2021/08/15 02:42:53;;;;;;;5.78;3.00;;;15.20;99.90;;;;;;4988374;28;20387;-84
2021/08/15 02:45:22;;;;;;;7.88;4.03;;;15.10;99.90;;;;;;4989039;28;20453;-84
2021/08/15 02:47:47;;;;;;;6.35;3.38;;;15.10;99.90;;;;;;5008298;28;20045;-84
2021/08/15 02:50:14;;;;;;;7.07;3.70;;;15.10;99.90;;;;;;4992436;28;20125;-84
2021/08/15 02:52:40;;;;;;;5.88;3.08;;;15.10;99.90;;;;;;4992081;28;20034;-84
2021/08/15 02:55:08;;;;;;;8.45;3.72;;;15.10;99.90;;;;;;4992075;28;20498;-84
2021/08/15 02:57:33;;;;;;;6.57;3.63;;;15.00;99.90;;;;;;5008284;28;20034;-84
2021/08/15 02:59:59;;;;;;;8.18;4.15;;;15.00;99.90;;;;;;4992410;28;20057;-84
2021/08/15 03:02:25;;;;;;;6.50;3.75;;;14.90;99.90;;;;;;4991930;28;20138;-84
2021/08/15 03:04:51;;;;;;;7.18;3.80;;;14.90;99.90;;;;;;4992144;28;20451;-84
2021/08/15 03:07:18;;;;;;;7.25;4.03;;;15.00;99.90;;;;;;4991999;28;20041;-84
2021/08/15 03:09:45;;;;;;;6.53;3.17;;;14.90;99.90;;;;;;4991827;28;20101;-85
2021/08/15 03:12:11;;;;;;;8.25;3.78;;;14.90;99.90;;;;;;4991934;28;20041;-85
2021/08/15 03:14:38;;;;;;;5.78;3.45;;;14.90;99.90;;;;;;4991934;28;20034;-84
2021/08/15 03:17:04;;;;;;;9.35;4.07;;;14.80;99.90;;;;;;4988454;28;20110;-84
2021/08/15 03:19:30;;;;;;;7.38;3.40;;;14.90;99.90;;;;;;4988570;28;20039;-85
2021/08/15 03:21:55;;;;;;;6.78;3.58;;;14.90;99.90;;;;;;4972491;28;20096;-84
2021/08/15 03:24:21;;;;;;;7.63;4.03;;;14.80;99.90;;;;;;4972365;28;20031;-84
2021/08/15 03:26:47;;;;;;;6.55;3.92;;;14.70;99.90;;;;;;4972288;28;20070;-85
2021/08/15 03:29:13;;;;;;;6.65;3.60;;;14.70;99.90;;;;;;4972326;28;20027;-85
2021/08/15 03:31:39;;;;;;;6.35;3.40;;;14.70;99.90;;;;;;4988431;28;20050;-85
2021/08/15 03:34:05;;;;;;;6.78;4.00;;;14.60;99.90;;;;;;4972114;28;20042;-85
2021/08/15 03:36:31;;;;;;;7.25;4.60;;;14.60;99.90;;;;;;4972267;28;20042;-85
2021/08/15 03:38:56;;;;;;;7.70;3.85;;;14.60;99.90;;;;;;4971976;28;20031;-84
2021/08/15 03:41:22;;;;;;;7.20;3.47;;;14.60;99.90;;;;;;4989411;28;20034;-85
2021/08/15 03:43:47;;;;;;;9.25;3.97;;;14.50;99.90;;;;;;4971897;28;20034;-85
2021/08/15 03:46:13;;;;;;;6.22;3.90;;;14.50;99.90;;;;;;4971857;28;20047;-84
2021/08/15 03:48:39;;;;;;;5.63;3.65;;;14.50;99.90;;;;;;4972001;28;20043;-85
2021/08/15 03:51:04;;;;;;;7.85;4.15;;;14.40;99.90;;;;;;4988217;28;20042;-84
2021/08/15 03:53:30;;;;;;;7.03;4.43;;;14.30;99.90;;;;;;4988220;28;20122;-85
2021/08/15 03:55:55;;;;;;;9.13;4.45;;;14.30;99.90;;;;;;4971939;28;20037;-84
2021/08/15 03:58:21;;;;;;;7.80;4.03;;;14.30;99.90;;;;;;4987204;28;20168;-84
2021/08/15 04:00:47;;;;;;;6.68;4.28;;;14.30;99.90;;;;;;4989223;28;20460;-85
2021/08/15 04:03:13;;;;;;;8.00;3.53;;;14.30;99.90;;;;;;4972003;28;20030;-85
2021/08/15 04:05:40;;;;;;;6.00;3.55;;;14.40;99.90;;;;;;4971671;28;20043;-85
2021/08/15 04:08:07;;;;;;;7.82;3.60;;;14.30;99.90;;;;;;4971603;28;20031;-85
2021/08/15 04:10:33;;;;;;;8.70;4.10;;;14.40;99.90;;;;;;4971596;28;20494;-85
2021/08/15 04:12:59;;;;;;;6.95;3.80;;;14.40;99.90;;;;;;4971596;28;20038;-84
2021/08/15 04:15:25;;;;;;;5.68;3.53;;;14.40;99.90;;;;;;4987772;28;20034;-85
2021/08/15 04:17:51;;;;;;;8.80;4.32;;;14.40;99.90;;;;;;4988079;28;20030;-85
2021/08/15 04:20:17;;;;;;;7.28;4.95;;;14.40;99.90;;;;;;5008294;28;20030;-85
2021/08/15 04:22:43;;;;;;;7.63;5.10;;;14.40;99.90;;;;;;4990799;28;20034;-85
2021/08/15 04:25:09;;;;;;;10.52;6.13;;;14.40;99.90;;;;;;4990598;28;20034;-85
2021/08/15 04:27:35;;;;;;;9.82;6.70;;;14.40;99.90;;;;;;4990764;28;20042;-85
2021/08/15 04:30:00;;;;;;;11.25;6.90;;;14.40;99.90;;;;;;4998403;28;20033;-85
2021/08/15 04:32:26;;;;;;;9.05;6.57;;;14.40;99.90;;;;;;4987209;28;20174;-85
2021/08/15 04:34:52;;;;;;;9.70;6.15;;;14.50;99.90;;;;;;4987114;28;20041;-84
2021/08/15 04:37:18;;;;;;;8.82;5.43;;;14.50;99.90;;;;;;4970463;28;20070;-84
2021/08/15 04:39:45;;;;;;;9.50;5.38;;;14.40;99.90;;;;;;4986694;28;20054;-85
2021/08/15 04:42:11;;;;;;;7.72;5.07;;;14.40;99.90;;;;;;4970318;28;20085;-85
2021/08/15 04:44:37;;;;;;;10.00;5.30;;;14.40;99.90;;;;;;4970671;28;20094;-87
2021/08/15 04:47:03;;;;;;;10.70;5.68;;;14.40;99.90;;;;;;4985878;28;20058;-86
2021/08/15 04:49:31;;;;;;;8.63;5.18;;;14.40;99.90;;;;;;5005212;28;20082;-87
2021/08/15 04:51:57;;;;;;;7.43;4.90;;;14.40;99.90;;;;;;5006099;28;20041;-86
2021/08/15 04:54:26;;;;;;;9.43;5.55;;;14.50;99.90;;;;;;5005823;28;20402;-87
2021/08/15 04:56:52;;;;;;;9.68;6.07;;;14.60;99.90;;;;;;5005905;28;20050;-87
2021/08/15 04:59:18;;;;;;;8.38;5.22;;;14.70;99.90;;;;;;4989556;28;20467;-87
2021/08/15 05:01:44;;;;;;;7.55;5.53;;;14.70;99.90;;;;;;5005514;28;20045;-87
2021/08/15 05:04:09;;;;;;;9.65;5.88;;;14.80;99.90;;;;;;5006988;28;20034;-87
2021/08/15 05:06:35;;;;;;;9.93;5.10;;;14.90;99.90;;;;;;5005537;28;20110;-87
2021/08/15 05:09:01;;;;;;;8.98;5.45;;;15.10;99.90;;;;;;5005614;28;20034;-87
2021/08/15 05:11:27;;;;;;;10.38;5.70;;;15.10;99.90;;;;;;5006764;28;20049;-87
2021/08/15 05:13:52;;;;;;;9.77;5.60;;;15.10;99.90;;;;;;5006344;28;20030;-87
2021/08/15 05:16:18;;;;;;;10.95;5.88;;;15.10;99.90;;;;;;4986307;28;20039;-87
2021/08/15 05:18:44;;;;;;;8.30;6.10;;;15.20;99.90;;;;;;4987427;28;20050;-86
2021/08/15 05:21:10;;;;;;;9.32;6.35;;;15.20;99.90;;;;;;4986118;28;20407;-87
2021/08/15 05:23:35;;;;;;;8.93;6.75;;;15.20;99.90;;;;;;4985831;28;20035;-86
2021/08/15 05:26:01;;;;;;;10.63;6.90;;;15.30;99.90;;;;;;4985803;28;20119;-87
2021/08/15 05:28:27;;;;;;;10.90;5.97;;;15.30;99.90;;;;;;5002110;28;20042;-87
2021/08/15 05:30:52;;;;;;;10.70;6.75;;;15.30;99.90;;;;;;4985734;28;20038;-87
2021/08/15 05:33:18;;;;;;;11.77;7.10;;;15.40;99.90;;;;;;4985628;28;20026;-86
2021/08/15 05:35:43;;;;;;;12.00;7.82;;;15.50;99.90;;;;;;4985694;28;20039;-87
2021/08/15 05:38:09;;;;;;;12.30;9.05;;;15.50;99.90;;;;;;4985802;28;20034;-87
2021/08/15 05:40:34;;;;;;;12.52;9.13;;;15.50;99.90;;;;;;4985868;28;20031;-87
2021/08/15 05:43:00;;;;;;;14.75;9.85;;;15.60;99.90;;;;;;4969436;28;20038;-87
2021/08/15 05:45:26;;;;;;;15.68;10.48;;;15.70;99.90;;;;;;4985660;28;20039;-87
2021/08/15 05:47:52;;;;;;;15.50;11.00;;;15.80;99.90;;;;;;4964049;28;20047;-86
2021/08/15 05:50:18;;;;;;;15.90;10.73;;;15.80;99.90;;;;;;4985441;28;20545;-87
2021/08/15 05:52:44;;;;;;;16.88;11.45;;;15.80;99.90;;;;;;4985686;28;20049;-87
2021/08/15 05:55:09;;;;;;;15.82;11.93;;;15.90;99.90;;;;;;4985221;28;20031;-85
2021/08/15 05:57:35;;;;;;;14.15;9.93;;;15.90;99.90;;;;;;4985028;28;20130;-85
2021/08/15 06:00:02;;;;;;;14.70;10.52;;;16.00;99.90;;;;;;4985339;28;20034;-85
2021/08/15 06:02:37;;;;;;;19.67;11.60;;;16.00;99.90;;;;;;4985146;28;20101;-85
2021/08/15 06:05:03;;;;;;;15.93;11.00;;;16.10;99.90;;;;;;4968918;28;20059;-85
2021/08/15 06:07:50;;;;;;;15.40;10.75;;;16.20;99.90;;;;;;4985628;28;20077;-86
2021/08/15 06:10:16;;;;;;;17.90;11.18;;;16.20;99.90;;;;;;4969114;28;20137;-86
2021/08/15 06:12:42;;;;;;;15.75;11.15;;;16.30;99.90;;;;;;4968885;28;20042;-86
2021/08/15 06:15:13;;;;;;;15.07;10.55;;;16.30;99.90;;;;;;4985073;28;20042;-86
2021/08/15 06:17:40;;;;;;;12.60;8.35;;;16.40;99.90;;;;;;4982719;28;20470;-85
2021/08/15 06:22:56;;;;;;;14.05;11.65;;;16.70;99.90;;;;;;5004053;28;20073;-85
2021/08/15 06:25:22;;;;;;;16.58;11.73;;;17.00;99.90;;;;;;4988208;28;20078;-87
2021/08/15 06:27:47;;;;;;;15.60;11.32;;;17.20;99.90;;;;;;4988424;28;20039;-85
2021/08/15 06:30:19;;;;;;;16.58;11.82;;;17.40;99.90;;;;;;4978133;28;20027;-86
2021/08/15 06:32:48;;;;;;;18.08;11.70;;;17.60;99.90;;;;;;4968371;28;20065;-85
2021/08/15 06:35:22;;;;;;;15.20;11.40;;;17.60;99.90;;;;;;4952794;28;20043;-86
2021/08/15 06:37:50;;;;;;;15.80;12.63;;;17.70;99.90;;;;;;4968756;28;20069;-85
2021/08/15 06:40:16;;;;;;;16.70;12.35;;;18.00;99.90;;;;;;4968672;28;20098;-86
2021/08/15 06:42:43;;;;;;;16.30;12.73;;;18.20;99.90;;;;;;4968660;28;20035;-86
2021/08/15 06:45:10;;;;;;;17.13;11.65;;;18.40;99.90;;;;;;4968396;28;20037;-86
2021/08/15 06:47:36;;;;;;;15.68;11.73;;;18.60;99.90;;;;;;4968127;28;20065;-86
2021/08/15 06:50:04;;;;;;;14.88;11.43;;;18.80;99.90;;;;;;4952593;28;20054;-85
2021/08/15 06:52:33;;;;;;;14.48;10.95;;;18.80;99.90;;;;;;4968500;28;20206;-86
2021/08/15 06:55:00;;;;;;;14.15;9.50;;;19.00;99.90;;;;;;4968261;28;20117;-85
2021/08/15 06:57:26;;;;;;;14.90;11.27;;;19.10;99.90;;;;;;4968491;28;20041;-87
2021/08/15 06:59:52;;;;;;;16.60;11.05;;;19.20;99.90;;;;;;4968601;28;20063;-86
2021/08/15 07:02:18;;;;;;;25.90;15.35;;;19.30;99.90;;;;;;4968458;28;20058;-85
2021/08/15 07:04:44;;;;;;;16.25;11.55;;;19.00;99.90;;;;;;4968131;28;20034;-86
2021/08/15 07:07:10;;;;;;;14.23;10.75;;;19.20;99.90;;;;;;4984669;28;20125;-86
2021/08/15 07:09:36;;;;;;;14.57;9.95;;;19.70;99.90;;;;;;4984282;28;20137;-86
2021/08/15 07:12:02;;;;;;;13.80;10.00;;;19.90;99.90;;;;;;4976330;28;20038;-86
2021/08/15 07:14:28;;;;;;;13.70;9.75;;;19.90;99.90;;;;;;5006476;28;20383;-86
2021/08/15 07:16:56;;;;;;;11.65;9.02;;;20.10;99.90;;;;;;4988483;28;20036;-86
2021/08/15 07:19:22;;;;;;;13.32;9.80;;;20.30;99.90;;;;;;4987741;28;20030;-86
2021/08/15 07:21:48;;;;;;;8.02;6.43;;;20.10;99.90;;;;;;4987455;28;20051;-86
2021/08/15 07:24:13;;;;;;;15.02;9.98;;;20.30;99.90;;;;;;5003822;28;20037;-86
2021/08/15 07:26:39;;;;;;;12.25;7.55;;;20.10;99.90;;;;;;5005027;28;20046;-86
2021/08/15 07:29:04;;;;;;;9.85;7.10;;;20.50;99.90;;;;;;4987426;28;20454;-86
2021/08/15 07:31:30;;;;;;;14.32;9.15;;;20.90;99.90;;;;;;5003181;28;20486;-86
2021/08/15 07:33:56;;;;;;;13.98;9.80;;;20.70;99.90;;;;;;4989895;28;20026;-85
2021/08/15 07:36:24;;;;;;;11.85;7.72;;;20.20;99.90;;;;;;4974914;28;20034;-86
2021/08/15 07:38:49;;;;;;;11.18;8.45;;;20.40;99.90;;;;;;4990862;28;20070;-87
2021/08/15 07:41:15;;;;;;;13.63;8.77;;;21.00;99.90;;;;;;5008384;28;20044;-86
2021/08/15 07:43:40;;;;;;;10.75;5.93;;;21.00;99.90;;;;;;5006952;28;20041;-86
2021/08/15 07:46:29;;;;;;;10.13;6.50;;;21.20;99.90;;;;;;5006653;28;20066;-86
2021/08/15 07:49:16;;;;;;;15.85;8.38;;;21.00;99.90;;;;;;4954123;29;20090;-85
2021/08/15 07:52:04;;;;;;;12.40;6.78;;;20.70;99.90;;;;;;4954048;29;20042;-86
2021/08/15 07:54:48;;;;;;;12.60;6.78;;;20.70;99.90;;;;;;4953650;29;20070;-86
2021/08/15 07:57:32;;;;;;;12.50;6.72;;;20.80;99.90;;;;;;4953617;29;20075;-85
2021/08/15 08:00:16;;;;;;;12.13;5.45;;;20.80;99.90;;;;;;4953434;29;20062;-86
2021/08/15 08:03:04;;;;;;;10.90;6.18;;;20.80;99.90;;;;;;4954071;29;20050;-86
2021/08/15 08:05:50;;;;;;;12.30;5.60;;;20.90;99.90;;;;;;4953505;29;20058;-87
2021/08/15 08:08:37;;;;;;;10.02;5.40;;;20.70;99.90;;;;;;4954207;29;20050;-88
2021/08/15 08:11:21;;;;;;;11.50;4.57;;;21.00;99.90;;;;;;4953363;29;20062;-87
2021/08/15 08:13:50;;;;;;;10.68;5.38;;;21.00;99.90;;;;;;4934964;29;20043;-87
2021/08/15 08:16:15;;;;;;;7.90;4.22;;;21.20;99.90;;;;;;4938584;28;20054;-89
2021/08/15 08:18:41;;;;;;;7.13;2.20;;;21.10;99.90;;;;;;4970108;28;20043;-86
2021/08/15 08:21:07;;;;;;;5.55;1.85;;;21.20;99.90;;;;;;4953567;28;20051;-85
2021/08/15 08:23:34;;;;;;;5.63;2.47;;;21.50;99.90;;;;;;4953893;28;20035;-87
2021/08/15 08:26:00;;;;;;;6.20;2.33;;;21.70;99.90;;;;;;4964158;28;20054;-87
2021/08/15 08:28:25;;;;;;;6.78;2.50;;;22.00;99.90;;;;;;4990228;28;20034;-88
2021/08/15 08:30:53;;;;;;;7.80;2.72;;;22.00;99.90;;;;;;4970838;28;20065;-88
2021/08/15 08:33:18;;;;;;;9.10;2.20;;;21.70;99.90;;;;;;4974859;28;20042;-88
2021/08/15 08:35:44;;;;;;;6.47;2.13;;;22.30;99.90;;;;;;4990981;28;20069;-87
2021/08/15 08:38:09;;;;;;;7.28;1.65;;;22.20;99.90;;;;;;4959132;28;20843;-88
2021/08/15 08:40:35;;;;;;;7.97;3.58;;;22.10;99.90;;;;;;4971370;28;20050;-86
2021/08/15 08:43:01;;;;;;;7.72;2.33;;;21.80;99.90;;;;;;4971159;28;20023;-87
2021/08/15 08:45:28;;;;;;;11.48;3.10;;;21.80;99.90;;;;;;4971339;28;20039;-88
2021/08/15 08:47:55;;;;;;;6.90;2.75;;;21.30;99.90;;;;;;4970817;28;20035;-92
2021/08/15 08:50:23;;;;;;;6.30;2.30;;;21.20;99.90;;;;;;4988089;28;20486;-88
2021/08/15 08:52:50;;;;;;;8.27;2.35;;;21.20;99.90;;;;;;4986953;28;20110;-87
2021/08/15 08:55:16;;;;;;;8.45;2.65;;;21.20;99.90;;;;;;4971016;28;20034;-87
2021/08/15 08:57:42;;;;;;;9.25;2.72;;;21.20;99.90;;;;;;4971825;28;20031;-87
2021/08/15 09:00:10;;;;;;;8.52;3.05;;;21.70;99.90;;;;;;4987112;28;20038;-87
2021/08/15 09:02:37;;;;;;;8.88;2.80;;;21.90;99.90;;;;;;4986822;28;20058;-88
2021/08/15 09:05:04;;;;;;;8.63;3.10;;;21.70;99.90;;;;;;4970988;28;20079;-89
2021/08/15 09:07:34;;;;;;;7.70;2.90;;;21.80;99.90;;;;;;4986854;28;20047;-87
2021/08/15 09:10:02;;;;;;;5.13;1.50;;;21.70;99.90;;;;;;4970859;28;20450;-86
2021/08/15 09:12:40;;;;;;;4.93;1.50;;;21.90;99.90;;;;;;4971364;28;20070;-86
2021/08/15 09:15:08;;;;;;;6.13;2.60;;;21.80;99.90;;;;;;4985727;28;20102;-86
2021/08/15 09:17:35;;;;;;;7.50;2.03;;;21.60;99.90;;;;;;4969942;28;20038;-88
2021/08/15 09:20:06;;;;;;;6.50;2.00;;;21.60;99.90;;;;;;4980803;28;20026;-88
2021/08/15 09:22:35;;;;;;;5.28;1.40;;;21.60;99.90;;;;;;4989617;28;20061;-89
2021/08/15 09:25:14;;;;;;;4.72;0.88;;;21.90;99.90;;;;;;4989799;28;20420;-89
2021/08/15 09:27:47;;;;;;;3.42;0.85;;;22.10;99.90;;;;;;4985959;28;20103;-88
2021/08/15 09:30:35;;;;;;;6.33;1.63;;;22.50;99.90;;;;;;4978217;28;20124;-89
2021/08/15 09:33:09;;;;;;;5.47;1.25;;;22.60;99.90;;;;;;4958267;28;20280;-87
2021/08/15 09:38:43;;;;;;;4.30;1.27;;;22.90;99.90;;;;;;4947069;29;20039;-86
2021/08/15 09:41:25;;;;;;;2.70;1.00;;;23.60;99.90;;;;;;4944969;29;20069;-87
2021/08/15 09:44:21;;;;;;;4.68;1.30;;;24.20;99.90;;;;;;4934686;29;20039;-89
2021/08/15 09:47:08;;;;;;;3.90;1.00;;;23.50;99.90;;;;;;4944399;29;20058;-90
2021/08/15 09:49:38;;;;;;;3.38;1.08;;;23.50;99.90;;;;;;4946641;29;20043;-87
2021/08/15 09:52:07;;;;;;;2.75;0.85;;;23.80;99.90;;;;;;4946759;29;20036;-87
2021/08/15 09:54:33;;;;;;;3.40;0.90;;;23.50;99.90;;;;;;4947610;29;20044;-87
2021/08/15 09:56:59;;;;;;;2.40;0.70;;;23.10;99.90;;;;;;4948110;29;20115;-86
2021/08/15 09:59:36;;;;;;;4.50;1.00;;;23.40;99.90;;;;;;4947915;29;20764;-88
2021/08/15 10:02:04;;;;;;;2.95;0.95;;;23.50;99.90;;;;;;4947086;29;20115;-86
2021/08/15 10:04:30;;;;;;;4.63;1.35;;;23.80;99.90;;;;;;4947268;29;20095;-90
2021/08/15 10:06:56;;;;;;;2.72;0.88;;;23.00;99.90;;;;;;4946891;29;20047;-87
2021/08/15 10:09:29;;;;;;;2.50;0.75;;;23.20;99.90;;;;;;4946727;29;20040;-88
2021/08/15 10:11:55;;;;;;;3.28;1.00;;;24.00;99.90;;;;;;4946994;29;20043;-87
2021/08/15 10:14:24;;;;;;;3.47;0.90;;;23.70;99.90;;;;;;4946194;29;20074;-89
2021/08/15 10:17:07;;;;;;;2.97;0.70;;;23.80;99.90;;;;;;4987906;28;20270;-88
2021/08/15 10:19:47;;;;;;;3.78;1.15;;;23.80;99.90;;;;;;4989387;28;20038;-86
2021/08/15 10:22:24;;;;;;;3.10;1.00;;;23.40;99.90;;;;;;4989108;28;20453;-89
2021/08/15 10:24:57;;;;;;;2.95;0.80;;;23.30;99.90;;;;;;5006144;28;20034;-86
2021/08/15 10:27:41;;;;;;;2.75;0.70;;;23.50;99.90;;;;;;5006399;28;20066;-88
2021/08/15 10:30:14;;;;;;;2.72;0.60;;;23.80;99.90;;;;;;4989290;28;20030;-88
2021/08/15 10:32:55;;;;;;;3.10;0.77;;;24.70;99.90;;;;;;5006403;28;20069;-89
2021/08/15 10:35:26;;;;;;;4.32;0.60;;;24.00;99.90;;;;;;4973132;28;20034;-87
2021/08/15 10:37:57;;;;;;;2.53;0.65;;;24.00;99.90;;;;;;4988717;28;20118;-86
2021/08/15 10:40:41;;;;;;;2.72;0.90;;;24.00;99.90;;;;;;4988859;28;20031;-87
2021/08/15 10:43:08;;;;;;;3.75;0.65;;;23.60;99.90;;;;;;4972609;28;20073;-85
2021/08/15 10:45:34;;;;;;;3.38;0.80;;;24.20;99.90;;;;;;4988624;28;20062;-88
2021/08/15 10:48:09;;;;;;;3.72;0.80;;;24.00;99.90;;;;;;4972390;28;20035;-87
2021/08/15 10:51:07;;;;;;;3.58;0.90;;;24.20;99.90;;;;;;4972141;28;20035;-87
2021/08/15 10:53:40;;;;;;;4.65;0.77;;;24.50;99.90;;;;;;4987246;28;20048;-87
2021/08/15 10:56:08;;;;;;;3.00;0.60;;;24.90;99.90;;;;;;4988769;28;20057;-87
2021/08/15 10:58:38;;;;;;;3.70;0.70;;;25.30;99.90;;;;;;4986390;28;20060;-86
2021/08/15 11:01:05;;;;;;;5.50;1.20;;;25.10;99.90;;;;;;4987111;28;20026;-87
2021/08/15 11:03:33;;;;;;;2.67;0.80;;;24.40;99.90;;;;;;4971314;28;20069;-87
2021/08/15 11:06:00;;;;;;;6.10;1.10;;;24.90;99.90;;;;;;4987940;28;20034;-87
2021/08/15 11:08:32;;;;;;;4.60;1.25;;;25.20;99.90;;;;;;4991460;28;20042;-88
2021/08/15 11:11:18;;;;;;;4.07;1.25;;;24.90;99.90;;;;;;4975546;28;20033;-89
2021/08/15 11:13:44;;;;;;;3.97;1.10;;;24.90;99.90;;;;;;4991641;28;20057;-88
2021/08/15 11:16:24;;;;;;;3.28;1.10;;;24.80;99.90;;;;;;4991365;28;20025;-86
2021/08/15 11:19:09;;;;;;;6.82;1.10;;;24.60;99.90;;;;;;4967038;28;20038;-86
2021/08/15 11:22:02;;;;;;;2.75;0.70;;;24.70;99.90;;;;;;5001186;23;20030;-86
2021/08/15 11:24:49;;;;;;;3.03;0.60;;;25.80;99.90;;;;;;5007519;28;20128;-85
2021/08/15 11:27:30;;;;;;;2.95;1.00;;;26.20;99.90;;;;;;4991829;28;20045;-88
2021/08/15 11:29:57;;;;;;;1.65;0.50;;;25.70;99.90;;;;;;4991695;28;20022;-87
2021/08/15 11:32:30;;;;;;;2.13;0.60;;;26.60;99.90;;;;;;4991893;28;20030;-84
2021/08/15 11:35:02;;;;;;;2.35;0.63;;;26.20;99.90;;;;;;4991696;28;20082;-88
2021/08/15 11:37:36;;;;;;;2.67;0.65;;;25.40;99.90;;;;;;4991709;28;20035;-87
2021/08/15 11:40:14;;;;;;;2.65;0.52;;;25.50;99.90;;;;;;4991254;28;20449;-86
2021/08/15 11:42:41;;;;;;;2.25;0.50;;;25.90;99.90;;;;;;4991202;28;20055;-87
2021/08/15 11:45:08;;;;;;;1.83;0.50;;;25.60;99.90;;;;;;4975074;28;20038;-89
2021/08/15 11:47:39;;;;;;;2.25;0.60;;;25.80;99.90;;;;;;4975149;28;20062;-88
2021/08/15 11:50:17;;;;;;;1.80;0.50;;;25.20;99.90;;;;;;4990986;28;20027;-87
2021/08/15 11:52:44;;;;;;;1.48;0.50;;;25.80;99.90;;;;;;4974744;28;20286;-88
2021/08/15 11:55:23;;;;;;;1.48;0.40;;;25.70;99.90;;;;;;4974702;28;20026;-87
2021/08/15 11:57:50;;;;;;;1.77;0.50;;;26.60;99.90;;;;;;4974754;28;20035;-88
2021/08/15 12:00:23;;;;;;;1.23;0.40;;;27.00;99.90;;;;;;4974826;28;20383;-87
2021/08/15 12:03:06;;;;;;;1.33;0.40;;;26.50;99.90;;;;;;4974463;28;20486;-87
2021/08/15 12:05:35;;;;;;;1.58;0.50;;;26.00;99.90;;;;;;4974351;28;20037;-86
2021/08/15 12:08:06;;;;;;;2.42;0.60;;;25.70;99.90;;;;;;4974493;28;20035;-88
2021/08/15 12:10:38;;;;;;;2.30;0.57;;;25.50;99.90;;;;;;4974504;28;20034;-89
2021/08/15 12:13:14;;;;;;;1.70;0.40;;;25.70;99.90;;;;;;4974426;28;20034;-87
2021/08/15 12:15:43;;;;;;;1.13;0.30;;;25.80;99.90;;;;;;4974295;28;20027;-86
2021/08/15 12:18:27;;;;;;;2.00;0.60;;;26.20;99.90;;;;;;4989616;28;20027;-84
2021/08/15 12:20:54;;;;;;;2.13;0.60;;;26.20;99.90;;;;;;4974211;28;20038;-86
2021/08/15 12:23:20;;;;;;;2.67;0.43;;;25.70;99.90;;;;;;4973792;28;20065;-88
2021/08/15 12:26:09;;;;;;;2.55;0.45;;;25.70;99.90;;;;;;4974146;28;20030;-86
2021/08/15 12:28:38;;;;;;;1.58;0.40;;;26.30;99.90;;;;;;4974305;28;20066;-88
2021/08/15 12:31:30;;;;;;;1.58;0.50;;;26.60;99.90;;;;;;4974026;28;20081;-87
2021/08/15 12:34:23;;;;;;;3.10;0.47;;;26.50;99.90;;;;;;4974231;28;20038;-87
2021/08/15 12:36:54;;;;;;;1.55;0.30;;;27.30;99.90;;;;;;4987644;28;20410;-88
2021/08/15 12:39:31;;;;;;;1.30;0.40;;;27.60;99.90;;;;;;4990074;28;20031;-88
2021/08/15 12:42:03;;;;;;;1.65;0.50;;;27.30;99.90;;;;;;4990579;28;20033;-87
2021/08/15 12:44:35;;;;;;;2.17;0.50;;;26.60;99.90;;;;;;4973672;28;20057;-87
2021/08/15 12:47:08;;;;;;;1.50;0.40;;;26.70;99.90;;;;;;4989798;28;20517;-89
2021/08/15 12:49:35;;;;;;;1.10;0.32;;;26.20;99.90;;;;;;4973621;28;20462;-87
2021/08/15 12:52:11;;;;;;;1.33;0.38;;;26.50;99.90;;;;;;4973553;28;20057;-88
2021/08/15 12:54:59;;;;;;;3.10;0.57;;;26.40;99.90;;;;;;4973551;28;20106;-88
2021/08/15 12:57:25;;;;;;;2.35;0.50;;;25.80;99.90;;;;;;4973599;28;20257;-89
2021/08/15 12:59:51;;;;;;;2.63;0.50;;;25.90;99.90;;;;;;4973654;28;20270;-88